Time;durP1;ratioP1;P1;durP2;ratioP2;P2;SDS_P1;SDS_P2;PMS_P1;PMS_P2;Temp;Humidity;BMP_temperature;BMP_pressure;BME280_temperature;BME280_humidity;BME280_pressure;Samples;Min_cycle;Max_cycle;Signal;HPM_P1;HPM_P2
2022/06/12 00:00:20;;;;;;;1999.90;999.90;;;17.70;99.90;;;;;;5070813;28;20457;-68
2022/06/12 00:02:46;;;;;;;1999.90;999.90;;;17.60;99.90;;;;;;5068319;28;20511;-68
2022/06/12 00:05:14;;;;;;;1999.90;999.90;;;17.20;99.90;;;;;;5070247;28;20912;-68
2022/06/12 00:07:41;;;;;;;1999.90;999.90;;;16.80;99.90;;;;;;5070558;28;20921;-70
2022/06/12 00:10:10;;;;;;;1999.90;999.90;;;16.70;99.90;;;;;;5070856;28;20457;-67
2022/06/12 00:12:40;;;;;;;1999.90;999.90;;;16.60;99.90;;;;;;5071909;28;20477;-70
2022/06/12 00:15:08;;;;;;;1999.90;999.90;;;16.70;99.90;;;;;;5076380;28;20879;-70
2022/06/12 00:17:35;;;;;;;1999.90;999.90;;;16.60;99.90;;;;;;5069638;28;20527;-70
2022/06/12 00:20:02;;;;;;;1999.90;999.90;;;16.60;99.90;;;;;;5072832;28;20510;-70
2022/06/12 00:22:28;;;;;;;1999.90;999.90;;;16.70;99.90;;;;;;5071554;28;20472;-69
2022/06/12 00:24:55;;;;;;;1999.90;999.90;;;16.70;99.90;;;;;;5066512;28;20463;-70
2022/06/12 00:27:22;;;;;;;1999.90;999.90;;;16.60;99.90;;;;;;5071122;28;20461;-70
2022/06/12 00:29:50;;;;;;;1999.90;999.90;;;16.60;99.90;;;;;;5072332;28;20511;-70
2022/06/12 00:32:18;;;;;;;1999.90;999.90;;;16.70;99.90;;;;;;5070211;28;21012;-70
2022/06/12 00:34:48;;;;;;;1999.90;999.90;;;16.40;99.90;;;;;;5071224;28;20457;-70
2022/06/12 00:37:17;;;;;;;1999.90;999.90;;;16.30;99.90;;;;;;5070882;28;20468;-70
2022/06/12 00:39:46;;;;;;;1999.90;999.90;;;16.30;99.90;;;;;;5076398;22;21047;-70
2022/06/12 00:42:24;;;;;;;1999.90;999.90;;;16.80;99.90;;;;;;5054156;28;20454;-68
2022/06/12 00:44:53;;;;;;;1999.90;999.90;;;16.30;99.90;;;;;;5054626;28;20458;-70
2022/06/12 00:47:21;;;;;;;1999.90;999.90;;;16.40;99.90;;;;;;5055194;28;20462;-73
2022/06/12 00:49:51;;;;;;;1999.90;999.90;;;16.20;99.90;;;;;;5051973;28;20841;-72
2022/06/12 00:52:23;;;;;;;1999.90;999.90;;;16.00;99.90;;;;;;5049868;28;20532;-74
2022/06/12 00:54:55;;;;;;;1999.90;999.90;;;15.70;99.90;;;;;;5050507;28;20465;-72
2022/06/12 00:57:25;;;;;;;1999.90;999.90;;;15.70;99.90;;;;;;5049801;28;20466;-72
2022/06/12 00:59:56;;;;;;;1999.90;999.90;;;15.60;99.90;;;;;;5052271;28;20498;-73
2022/06/12 01:02:26;;;;;;;1999.90;999.90;;;15.50;99.90;;;;;;5050972;28;20457;-72
2022/06/12 01:07:43;;;;;;;1999.90;999.90;;;15.60;99.90;;;;;;5049811;28;20441;-72
2022/06/12 01:10:13;;;;;;;1999.90;999.90;;;15.60;99.90;;;;;;5052353;28;21181;-71
2022/06/12 01:12:43;;;;;;;1999.90;999.90;;;15.40;99.90;;;;;;5052540;28;20489;-72
2022/06/12 01:15:16;;;;;;;1999.90;999.90;;;15.60;99.90;;;;;;5052221;28;20575;-72
2022/06/12 01:17:44;;;;;;;1999.90;999.90;;;15.60;99.90;;;;;;5051715;28;20536;-72
2022/06/12 01:20:15;;;;;;;1999.90;999.90;;;15.70;99.90;;;;;;5050545;28;20482;-70
2022/06/12 01:23:11;;;;;;;1999.90;999.90;;;15.50;99.90;;;;;;5053943;28;20462;-72
2022/06/12 01:26:17;;;;;;;1999.90;999.90;;;15.50;99.90;;;;;;5051533;28;20462;-72
2022/06/12 01:28:48;;;;;;;1999.90;999.90;;;15.60;99.90;;;;;;5035773;28;20481;-72
2022/06/12 01:31:25;;;;;;;1999.90;999.90;;;15.80;99.90;;;;;;5050760;28;20482;-73
2022/06/12 01:34:04;;;;;;;1999.90;999.90;;;15.80;99.90;;;;;;5050822;28;20489;-72
2022/06/12 01:36:35;;;;;;;1999.90;999.90;;;16.00;99.90;;;;;;5050448;28;20965;-72
2022/06/12 01:39:11;;;;;;;1999.90;999.90;;;16.10;99.90;;;;;;5050593;28;20540;-73
2022/06/12 01:41:46;;;;;;;1999.90;999.90;;;16.10;99.90;;;;;;5048983;28;20454;-72
2022/06/12 01:44:23;;;;;;;1999.90;999.90;;;16.00;99.90;;;;;;5049925;28;20556;-71
2022/06/12 01:46:55;;;;;;;1999.90;999.90;;;15.60;99.90;;;;;;5048229;28;20470;-72
2022/06/12 01:49:31;;;;;;;1999.90;999.90;;;15.30;99.90;;;;;;5048208;28;20541;-72
2022/06/12 01:52:02;;;;;;;1999.90;999.90;;;15.30;99.90;;;;;;5044792;28;21041;-72
2022/06/12 01:54:35;;;;;;;1999.90;999.90;;;15.30;99.90;;;;;;5047522;28;20463;-72
2022/06/12 01:57:08;;;;;;;1999.90;999.90;;;15.30;99.90;;;;;;5045333;28;20458;-71
2022/06/12 01:59:42;;;;;;;1999.90;999.90;;;15.40;99.90;;;;;;5048833;28;20915;-72
2022/06/12 02:02:15;;;;;;;1999.90;999.90;;;15.60;99.90;;;;;;5050505;28;20453;-69
2022/06/12 02:04:52;;;;;;;1999.90;999.90;;;15.80;99.90;;;;;;5049044;28;20466;-72
2022/06/12 02:07:23;;;;;;;1999.90;999.90;;;15.90;99.90;;;;;;5048179;28;20668;-69
2022/06/12 02:09:54;;;;;;;1999.90;999.90;;;16.00;99.90;;;;;;5048616;28;20533;-69
2022/06/12 02:15:16;;;;;;;1999.90;999.90;;;16.30;99.90;;;;;;5045802;28;20438;-69
2022/06/12 02:17:53;;;;;;;1999.90;999.90;;;16.30;99.90;;;;;;5050057;28;20615;-69
2022/06/12 02:20:25;;;;;;;1999.90;999.90;;;16.40;99.90;;;;;;5048233;28;20484;-69
2022/06/12 02:22:53;;;;;;;1999.90;999.90;;;16.50;99.90;;;;;;5049144;28;20890;-69
2022/06/12 02:25:24;;;;;;;1999.90;999.90;;;16.50;99.90;;;;;;5049432;28;20515;-69
2022/06/12 02:27:56;;;;;;;1999.90;999.90;;;16.50;99.90;;;;;;5049526;28;20481;-69
2022/06/12 02:30:26;;;;;;;1999.90;999.90;;;16.60;99.90;;;;;;5049323;28;20536;-70
2022/06/12 02:32:57;;;;;;;1999.90;999.90;;;16.60;99.90;;;;;;5049186;28;20865;-69
2022/06/12 02:35:27;;;;;;;1999.90;999.90;;;16.70;99.90;;;;;;5047364;28;21153;-69
2022/06/12 02:38:05;;;;;;;1999.90;999.90;;;16.70;99.90;;;;;;5057463;28;20875;-70
2022/06/12 02:40:35;;;;;;;1999.90;999.90;;;16.70;99.90;;;;;;5052022;28;20878;-69
2022/06/12 02:43:08;;;;;;;1999.90;999.90;;;16.80;99.90;;;;;;5050653;28;20542;-69
2022/06/12 02:45:42;;;;;;;1999.90;999.90;;;16.90;99.90;;;;;;5048743;28;20454;-69
2022/06/12 02:48:09;;;;;;;1999.90;999.90;;;16.90;99.90;;;;;;5049472;28;20512;-67
2022/06/12 02:50:41;;;;;;;1999.90;999.90;;;16.90;99.90;;;;;;5049108;28;20458;-69
2022/06/12 02:53:19;;;;;;;1999.90;999.90;;;17.00;99.90;;;;;;5047592;28;20528;-69
2022/06/12 02:55:57;;;;;;;1999.90;999.90;;;17.00;99.90;;;;;;5049790;28;20531;-69
2022/06/12 02:58:34;;;;;;;1999.90;999.90;;;17.20;99.90;;;;;;5049550;28;20461;-70
2022/06/12 03:01:08;;;;;;;1999.90;999.90;;;17.20;99.90;;;;;;5045743;28;20458;-70
2022/06/12 03:03:41;;;;;;;1999.90;999.90;;;17.20;99.90;;;;;;5048916;28;20454;-69
2022/06/12 03:06:09;;;;;;;1999.90;999.90;;;17.30;99.90;;;;;;5049868;28;20453;-68
2022/06/12 03:08:38;;;;;;;1999.90;999.90;;;17.40;99.90;;;;;;5050175;28;20477;-70
2022/06/12 03:11:10;;;;;;;1999.90;999.90;;;17.50;99.90;;;;;;5050652;28;20536;-69
2022/06/12 03:13:38;;;;;;;1999.90;999.90;;;17.50;99.90;;;;;;5049956;28;20878;-69
2022/06/12 03:16:15;;;;;;;1999.90;999.90;;;17.70;99.90;;;;;;5050368;28;20462;-69
2022/06/12 03:18:48;;;;;;;1999.90;999.90;;;17.70;99.90;;;;;;5048420;28;20612;-69
2022/06/12 03:21:24;;;;;;;1999.90;999.90;;;17.70;99.90;;;;;;5049408;28;20465;-68
2022/06/12 03:24:26;;;;;;;1999.90;999.90;;;17.80;99.90;;;;;;5049294;28;20868;-70
2022/06/12 03:27:10;;;;;;;1999.90;999.90;;;17.90;99.90;;;;;;5048971;28;20457;-69
2022/06/12 03:29:43;;;;;;;1999.90;999.90;;;17.90;99.90;;;;;;5049903;28;20485;-69
2022/06/12 03:32:19;;;;;;;1999.90;999.90;;;17.90;99.90;;;;;;5052225;28;20466;-69
2022/06/12 03:34:55;;;;;;;1999.90;999.90;;;18.00;99.90;;;;;;5053497;28;20484;-69
2022/06/12 03:37:27;;;;;;;1999.90;999.90;;;18.00;99.90;;;;;;5053927;28;20460;-69
2022/06/12 03:40:04;;;;;;;1999.90;999.90;;;18.10;99.90;;;;;;5052581;28;20509;-70
2022/06/12 03:42:36;;;;;;;1999.90;999.90;;;18.10;99.90;;;;;;5053545;28;21361;-68
2022/06/12 03:45:08;;;;;;;1999.90;999.90;;;18.00;99.90;;;;;;5049896;28;20454;-69
2022/06/12 03:47:44;;;;;;;1999.90;999.90;;;18.00;99.90;;;;;;5051249;28;20454;-68
2022/06/12 03:50:16;;;;;;;1999.90;999.90;;;18.00;99.90;;;;;;5053354;28;20477;-66
2022/06/12 03:52:49;;;;;;;1999.90;999.90;;;17.90;99.90;;;;;;5052890;28;20887;-69
2022/06/12 03:57:50;;;;;;;1999.90;999.90;;;17.90;99.90;;;;;;5052368;28;20466;-69
2022/06/12 03:58:17;;;;;;;1999.90;999.90;;;17.90;99.90;;;;;;5050102;28;20450;-68
2022/06/12 04:00:46;;;;;;;1999.90;999.90;;;17.90;99.90;;;;;;5052406;28;20523;-69
2022/06/12 04:03:19;;;;;;;1999.90;999.90;;;18.00;99.90;;;;;;5047747;28;20451;-69
2022/06/12 04:05:51;;;;;;;1999.90;999.90;;;18.10;99.90;;;;;;5053876;28;20511;-69
2022/06/12 04:08:21;;;;;;;1999.90;999.90;;;18.20;99.90;;;;;;5052906;28;20467;-69
2022/06/12 04:10:49;;;;;;;1999.90;999.90;;;18.20;99.90;;;;;;5053792;28;20462;-70
2022/06/12 04:13:18;;;;;;;1999.90;999.90;;;18.30;99.90;;;;;;5052728;28;20489;-69
2022/06/12 04:15:48;;;;;;;1999.90;999.90;;;18.30;99.90;;;;;;5052106;28;20465;-69
2022/06/12 04:18:17;;;;;;;1999.90;999.90;;;18.30;99.90;;;;;;5052675;28;20462;-68
2022/06/12 04:20:53;;;;;;;1999.90;999.90;;;18.30;99.90;;;;;;5053412;28;20476;-69
2022/06/12 04:23:42;;;;;;;1999.90;999.90;;;18.30;99.90;;;;;;5053449;28;20484;-69
2022/06/12 04:26:17;;;;;;;1999.90;999.90;;;18.30;99.90;;;;;;5052981;28;20487;-70
2022/06/12 04:28:46;;;;;;;1999.90;999.90;;;18.20;99.90;;;;;;5051135;28;21362;-66
2022/06/12 04:31:18;;;;;;;1999.90;999.90;;;18.30;99.90;;;;;;5055671;28;20461;-68
2022/06/12 04:34:08;;;;;;;1999.90;999.90;;;18.30;99.90;;;;;;5053644;28;20461;-69
2022/06/12 04:36:35;;;;;;;1999.90;999.90;;;18.30;99.90;;;;;;5053177;28;20470;-69
2022/06/12 04:39:02;;;;;;;1999.90;999.90;;;18.40;99.90;;;;;;5052948;28;20547;-69
2022/06/12 04:41:32;;;;;;;1999.90;999.90;;;18.30;99.90;;;;;;5052370;28;20520;-69
2022/06/12 04:43:59;;;;;;;1999.90;999.90;;;18.30;99.90;;;;;;5047278;28;20968;-69
2022/06/12 04:46:26;;;;;;;1999.90;999.90;;;18.40;99.90;;;;;;5052399;28;20458;-69
2022/06/12 04:48:56;;;;;;;1999.90;999.90;;;18.20;99.90;;;;;;5053130;28;20989;-69
2022/06/12 04:51:25;;;;;;;1999.90;999.90;;;18.30;99.90;;;;;;5051767;28;20455;-69
2022/06/12 04:53:52;;;;;;;1999.90;999.90;;;18.40;99.90;;;;;;5050941;28;20543;-68
2022/06/12 04:56:21;;;;;;;1999.90;999.90;;;18.60;99.90;;;;;;5053326;28;20461;-69
2022/06/12 04:58:48;;;;;;;1999.90;999.90;;;18.90;99.90;;;;;;5050746;28;20877;-69
2022/06/12 05:01:16;;;;;;;1999.90;999.90;;;19.30;99.90;;;;;;5052423;28;20484;-69
2022/06/12 05:03:42;;;;;;;1999.90;999.90;;;19.60;99.90;;;;;;5051694;28;20458;-69
2022/06/12 05:06:13;;;;;;;1999.90;999.90;;;19.60;99.90;;;;;;5052682;28;20528;-69
2022/06/12 05:08:41;;;;;;;1999.90;999.90;;;19.40;99.90;;;;;;5052713;28;20493;-69
2022/06/12 05:11:08;;;;;;;1999.90;999.90;;;19.60;99.90;;;;;;5051830;28;21403;-70
2022/06/12 05:13:34;;;;;;;1999.90;999.90;;;19.40;99.90;;;;;;5051394;28;21196;-68
2022/06/12 05:16:01;;;;;;;1999.90;999.90;;;19.20;99.90;;;;;;5052256;28;20515;-69
2022/06/12 05:18:28;;;;;;;1999.90;999.90;;;19.50;99.90;;;;;;5051622;28;20482;-69
2022/06/12 05:20:57;;;;;;;1999.90;999.90;;;20.10;99.90;;;;;;5052664;28;20501;-69
2022/06/12 05:23:24;;;;;;;1999.90;999.90;;;20.50;99.90;;;;;;5049182;28;20462;-69
2022/06/12 05:25:52;;;;;;;1999.90;999.90;;;21.00;99.90;;;;;;5051832;28;20466;-71
2022/06/12 05:28:20;;;;;;;1999.90;999.90;;;21.10;99.90;;;;;;5051325;28;20472;-70
2022/06/12 05:30:48;;;;;;;1999.90;999.90;;;21.10;99.90;;;;;;5050273;28;20520;-69
2022/06/12 05:33:15;;;;;;;1999.90;999.90;;;21.10;99.90;;;;;;5050705;28;20525;-69
2022/06/12 05:35:42;;;;;;;1999.90;999.90;;;21.50;99.90;;;;;;5052764;28;20535;-69
2022/06/12 05:38:10;;;;;;;1999.90;999.90;;;21.80;99.90;;;;;;5051967;28;20467;-66
2022/06/12 05:40:39;;;;;;;1999.90;999.90;;;21.50;99.90;;;;;;5050666;28;20454;-69
2022/06/12 05:43:09;;;;;;;1999.90;999.90;;;21.50;99.90;;;;;;5051399;28;20454;-69
2022/06/12 05:45:35;;;;;;;1999.90;999.90;;;21.50;99.90;;;;;;5051507;28;20553;-69
2022/06/12 05:48:07;;;;;;;1999.90;999.90;;;21.90;99.90;;;;;;5049681;28;20845;-69
2022/06/12 05:50:37;;;;;;;1999.90;999.90;;;22.30;99.90;;;;;;5050580;28;20519;-69
2022/06/12 05:53:04;;;;;;;1999.90;999.90;;;22.60;99.90;;;;;;5051198;28;20985;-68
2022/06/12 05:55:31;;;;;;;1999.90;999.90;;;22.50;99.90;;;;;;5050736;28;20552;-70
2022/06/12 05:57:58;;;;;;;1999.90;999.90;;;22.80;99.90;;;;;;5050950;28;20458;-67
2022/06/12 06:00:29;;;;;;;1999.90;999.90;;;22.50;99.90;;;;;;5049102;28;20544;-68
2022/06/12 06:02:56;;;;;;;1999.90;999.90;;;22.60;99.90;;;;;;5051938;28;20458;-70
2022/06/12 06:05:23;;;;;;;1999.90;999.90;;;22.90;99.90;;;;;;5050357;28;20511;-69
2022/06/12 06:07:50;;;;;;;1999.90;999.90;;;22.50;99.90;;;;;;5050613;28;20492;-69
2022/06/12 06:10:21;;;;;;;1999.90;999.90;;;22.80;99.80;;;;;;5050851;28;20481;-69
2022/06/12 06:12:47;;;;;;;1999.90;999.90;;;22.70;99.90;;;;;;5050234;28;20474;-69
2022/06/12 06:15:15;;;;;;;1999.90;999.90;;;22.90;99.70;;;;;;5050381;28;20489;-67
2022/06/12 06:17:43;;;;;;;1999.90;999.90;;;22.80;99.50;;;;;;5050309;28;20466;-69
2022/06/12 06:20:14;;;;;;;1999.90;999.90;;;23.10;99.20;;;;;;5050810;28;20482;-69
2022/06/12 06:22:41;;;;;;;1999.90;999.90;;;23.10;98.90;;;;;;5043556;28;20474;-68
2022/06/12 06:25:09;;;;;;;1999.90;999.90;;;22.90;99.50;;;;;;5047442;28;20520;-69
2022/06/12 06:27:37;;;;;;;1999.90;999.90;;;23.00;99.20;;;;;;5054263;28;20914;-69
2022/06/12 06:30:04;;;;;;;1999.90;999.90;;;23.00;98.80;;;;;;5054863;28;20485;-70
2022/06/12 06:32:32;;;;;;;1999.90;999.90;;;23.10;98.80;;;;;;5053808;28;20486;-69
2022/06/12 06:35:00;;;;;;;1999.90;999.90;;;23.20;98.50;;;;;;5049814;28;20473;-70
2022/06/12 06:37:27;;;;;;;1999.90;999.90;;;23.40;98.30;;;;;;5054351;28;20458;-69
2022/06/12 06:39:54;;;;;;;1999.90;999.90;;;23.40;97.90;;;;;;5083977;22;20498;-69
2022/06/12 06:42:20;;;;;;;1999.90;999.90;;;23.20;97.70;;;;;;5066674;28;20507;-68
2022/06/12 06:47:31;;;;;;;1999.90;999.90;;;22.70;98.50;;;;;;5064127;28;20484;-69
2022/06/12 06:49:59;;;;;;;1999.90;999.90;;;22.90;98.50;;;;;;5057703;28;20474;-69
2022/06/12 06:52:26;;;;;;;1999.90;999.90;;;23.00;99.30;;;;;;5048188;28;20486;-69
2022/06/12 06:54:53;;;;;;;1999.90;999.90;;;22.80;99.70;;;;;;5047664;28;20468;-69
2022/06/12 06:57:20;;;;;;;1999.90;999.90;;;22.90;99.40;;;;;;5047172;28;20558;-68
2022/06/12 06:59:46;;;;;;;1999.90;999.90;;;23.00;98.80;;;;;;5047420;28;20478;-69
2022/06/12 07:02:13;;;;;;;1999.90;999.90;;;23.20;97.90;;;;;;5049926;28;20458;-69
2022/06/12 07:04:40;;;;;;;1999.90;999.90;;;23.00;97.10;;;;;;5048478;28;20469;-69
2022/06/12 07:07:09;;;;;;;1999.90;999.90;;;23.10;97.00;;;;;;5047732;28;20515;-69
2022/06/12 07:09:36;;;;;;;1999.90;999.90;;;23.10;97.50;;;;;;5047732;28;20482;-68
2022/06/12 07:12:03;;;;;;;1999.90;999.90;;;23.10;96.90;;;;;;5048285;28;20459;-68
2022/06/12 07:14:30;;;;;;;1999.90;999.90;;;23.00;97.20;;;;;;5049034;28;20482;-69
2022/06/12 07:16:57;;;;;;;1999.90;999.90;;;22.90;98.30;;;;;;5047722;28;20462;-69
2022/06/12 07:19:24;;;;;;;1999.90;999.90;;;23.10;99.50;;;;;;5048681;28;20482;-69
2022/06/12 07:21:51;;;;;;;1999.90;999.90;;;23.20;99.90;;;;;;5041585;28;20462;-69
2022/06/12 07:24:19;;;;;;;1999.90;999.90;;;23.00;99.90;;;;;;5051417;28;20488;-69
2022/06/12 07:26:47;;;;;;;1999.90;999.90;;;23.00;98.70;;;;;;5051414;28;20442;-69
2022/06/12 07:29:15;;;;;;;1999.90;999.90;;;23.30;97.70;;;;;;5050304;28;20504;-68
2022/06/12 07:31:42;;;;;;;1999.90;999.90;;;23.10;97.90;;;;;;5047145;28;20523;-68
2022/06/12 07:34:11;;;;;;;1999.90;999.90;;;23.30;97.70;;;;;;5048168;28;20478;-69
2022/06/12 07:36:38;;;;;;;1999.90;999.90;;;23.40;97.40;;;;;;5044535;28;20512;-69
2022/06/12 07:39:08;;;;;;;1999.90;999.90;;;23.40;96.60;;;;;;5045799;28;21005;-68
2022/06/12 07:41:36;;;;;;;1999.90;999.90;;;23.40;96.50;;;;;;5047376;28;21046;-68
2022/06/12 07:44:03;;;;;;;1999.90;999.90;;;23.30;96.90;;;;;;5048624;28;20487;-69
2022/06/12 07:46:30;;;;;;;1999.90;999.90;;;23.30;97.30;;;;;;5046663;28;20458;-68
2022/06/12 07:48:57;;;;;;;1999.90;999.90;;;23.40;96.60;;;;;;5046051;28;20540;-69
2022/06/12 07:51:24;;;;;;;1999.90;999.90;;;23.40;96.90;;;;;;5046333;28;20875;-69
2022/06/12 07:53:52;;;;;;;1999.90;999.90;;;23.50;96.40;;;;;;5045009;28;21006;-66
2022/06/12 07:56:22;;;;;;;1999.90;999.90;;;23.40;96.40;;;;;;5046326;28;20469;-69
2022/06/12 07:58:50;;;;;;;1999.90;999.90;;;23.60;96.70;;;;;;5041719;28;20894;-69
2022/06/12 08:01:20;;;;;;;1999.90;999.90;;;23.70;96.40;;;;;;5050998;28;20442;-69
2022/06/12 08:03:47;;;;;;;1999.90;999.90;;;23.60;95.80;;;;;;5049324;28;20466;-68
2022/06/12 08:06:14;;;;;;;1999.90;999.90;;;23.60;96.40;;;;;;5047374;28;20957;-69
2022/06/12 08:08:41;;;;;;;1999.90;999.90;;;23.60;96.50;;;;;;5048033;28;20476;-67
2022/06/12 08:11:08;;;;;;;1999.90;999.90;;;23.50;96.80;;;;;;5047106;28;20511;-69
2022/06/12 08:13:36;;;;;;;1999.90;999.90;;;23.50;97.00;;;;;;5047809;28;20482;-69
2022/06/12 08:16:04;;;;;;;1999.90;999.90;;;23.70;96.70;;;;;;5046823;28;21037;-68
2022/06/12 08:18:31;;;;;;;1999.90;999.90;;;23.60;96.30;;;;;;5051898;28;20460;-69
2022/06/12 08:21:01;;;;;;;1999.90;999.90;;;23.70;96.90;;;;;;5049347;28;20487;-68
2022/06/12 08:23:33;;;;;;;1999.90;999.90;;;23.80;96.50;;;;;;5051723;28;20458;-69
2022/06/12 08:26:03;;;;;;;1999.90;999.90;;;23.80;95.80;;;;;;5050251;28;20588;-69
2022/06/12 08:28:33;;;;;;;1999.90;999.90;;;23.80;96.30;;;;;;5050434;28;20466;-67
2022/06/12 08:31:01;;;;;;;1999.90;999.90;;;23.90;96.10;;;;;;5051383;28;20466;-69
2022/06/12 08:33:30;;;;;;;1999.90;999.90;;;23.80;96.30;;;;;;5048536;28;20489;-68
2022/06/12 08:35:57;;;;;;;1999.90;999.90;;;23.80;95.90;;;;;;5047921;28;20454;-68
2022/06/12 08:38:23;;;;;;;1999.90;999.90;;;23.70;96.40;;;;;;5048973;28;20458;-68
2022/06/12 08:40:57;;;;;;;1999.90;999.90;;;23.90;95.90;;;;;;5046122;28;20489;-69
2022/06/12 08:43:31;;;;;;;1999.90;999.90;;;23.80;96.10;;;;;;5044616;28;20515;-68
2022/06/12 08:46:00;;;;;;;1999.90;999.90;;;24.10;95.80;;;;;;5049285;28;20466;-69
2022/06/12 08:48:34;;;;;;;1999.90;999.90;;;24.10;95.90;;;;;;5053885;28;20879;-69
2022/06/12 08:51:07;;;;;;;1999.90;999.90;;;23.90;95.70;;;;;;5053049;28;20453;-69
2022/06/12 08:53:40;;;;;;;1999.90;999.90;;;24.00;96.00;;;;;;5062296;28;20544;-69
2022/06/12 08:56:11;;;;;;;1999.90;999.90;;;24.30;95.90;;;;;;5053192;28;20572;-69
2022/06/12 08:58:41;;;;;;;1999.90;999.90;;;24.10;96.00;;;;;;5053204;28;20548;-68
2022/06/12 09:01:09;;;;;;;1999.90;999.90;;;24.00;96.70;;;;;;5049208;28;20490;-69
2022/06/12 09:03:41;;;;;;;1999.90;999.90;;;24.20;96.20;;;;;;5048564;28;20953;-69
2022/06/12 09:06:14;;;;;;;1999.90;999.90;;;24.20;95.90;;;;;;5052069;28;20512;-68
2022/06/12 09:08:47;;;;;;;1999.90;999.90;;;24.50;95.80;;;;;;5053144;28;20470;-71
2022/06/12 09:11:19;;;;;;;1999.90;999.90;;;24.90;94.90;;;;;;5051454;28;20967;-69
2022/06/12 09:13:56;;;;;;;1999.90;999.90;;;24.90;95.00;;;;;;5048939;28;21074;-69
2022/06/12 09:16:30;;;;;;;1999.90;999.90;;;24.90;95.20;;;;;;5050412;28;20484;-69
2022/06/12 09:19:04;;;;;;;1999.90;999.90;;;25.10;95.00;;;;;;5051048;28;20535;-69
2022/06/12 09:21:43;;;;;;;1999.90;999.90;;;25.20;94.10;;;;;;5051915;28;20469;-69
2022/06/12 09:24:24;;;;;;;1999.90;999.90;;;24.90;94.50;;;;;;5048526;28;20449;-69
2022/06/12 09:27:02;;;;;;;1999.90;999.90;;;25.10;94.60;;;;;;5048926;28;20515;-69
2022/06/12 09:29:38;;;;;;;1999.90;999.90;;;25.00;94.80;;;;;;5049479;28;20488;-69
2022/06/12 09:32:15;;;;;;;1999.90;999.90;;;25.00;94.60;;;;;;5049033;28;20489;-69
2022/06/12 09:34:55;;;;;;;1999.90;999.90;;;25.20;94.40;;;;;;5049248;28;20486;-68
2022/06/12 09:40:28;;;;;;;1999.90;999.90;;;25.10;94.60;;;;;;5050596;28;21004;-68
2022/06/12 09:43:03;;;;;;;1999.90;999.90;;;24.80;94.80;;;;;;5047807;28;20489;-69
2022/06/12 09:45:43;;;;;;;1999.90;999.90;;;24.60;94.70;;;;;;5050867;28;20523;-69
2022/06/12 09:48:20;;;;;;;1999.90;999.90;;;24.40;95.60;;;;;;5050778;28;20458;-69
2022/06/12 09:51:04;;;;;;;1999.90;999.90;;;24.60;95.30;;;;;;5049199;28;20490;-69
2022/06/12 09:53:59;;;;;;;1999.90;999.90;;;25.10;95.30;;;;;;5049691;28;20492;-69
2022/06/12 09:56:33;;;;;;;1999.90;999.90;;;25.60;93.70;;;;;;5051007;28;20462;-69
2022/06/12 09:59:06;;;;;;;1999.90;999.90;;;25.50;93.90;;;;;;5050985;28;20902;-69
2022/06/12 10:01:38;;;;;;;1999.90;999.90;;;25.60;93.00;;;;;;5049971;28;20457;-68
2022/06/12 10:04:12;;;;;;;1999.90;999.90;;;25.50;93.70;;;;;;5051212;28;20454;-69
2022/06/12 10:06:46;;;;;;;1999.90;999.90;;;25.40;93.30;;;;;;5047594;28;20454;-67
2022/06/12 10:09:18;;;;;;;1999.90;999.90;;;25.30;93.60;;;;;;5049227;28;20530;-68
2022/06/12 10:11:49;;;;;;;1999.90;999.90;;;25.60;92.80;;;;;;5048275;28;20808;-69
2022/06/12 10:14:22;;;;;;;1999.90;999.90;;;25.90;92.50;;;;;;5048070;28;20490;-70
2022/06/12 10:16:54;;;;;;;1999.90;999.90;;;26.30;91.90;;;;;;5047405;28;20458;-69
2022/06/12 10:19:25;;;;;;;1999.90;999.90;;;26.30;92.10;;;;;;5047246;28;21005;-69
2022/06/12 10:21:56;;;;;;;1999.90;999.90;;;26.20;92.70;;;;;;5052112;28;20857;-69
2022/06/12 10:24:23;;;;;;;1999.90;999.90;;;25.90;92.30;;;;;;5043274;28;20509;-68
2022/06/12 10:26:57;;;;;;;1999.90;999.90;;;25.80;91.80;;;;;;5049856;28;21138;-69
2022/06/12 10:29:25;;;;;;;1999.90;999.90;;;25.90;91.70;;;;;;5053118;28;20523;-69
2022/06/12 10:31:58;;;;;;;1999.90;999.90;;;25.80;92.40;;;;;;5050277;28;20558;-69
2022/06/12 10:34:28;;;;;;;1999.90;999.90;;;25.70;92.50;;;;;;5048999;28;20470;-69
2022/06/12 10:36:57;;;;;;;1999.90;999.90;;;25.90;91.40;;;;;;5050142;28;20462;-69
2022/06/12 10:39:26;;;;;;;1999.90;999.90;;;26.20;91.20;;;;;;5050213;28;20544;-68
2022/06/12 10:41:55;;;;;;;1999.90;999.90;;;25.80;91.30;;;;;;5049302;28;20473;-69
2022/06/12 10:44:37;;;;;;;1999.90;999.90;;;25.60;91.80;;;;;;5051233;28;21080;-69
2022/06/12 10:47:20;;;;;;;1999.90;999.90;;;25.90;90.40;;;;;;5049390;28;20478;-69
2022/06/12 10:49:48;;;;;;;1999.90;999.90;;;25.70;90.10;;;;;;5049835;28;20564;-68
2022/06/12 10:52:19;;;;;;;1999.90;999.90;;;25.70;89.20;;;;;;5050442;28;20889;-69
2022/06/12 10:54:47;;;;;;;1999.90;999.90;;;25.60;89.50;;;;;;5045175;28;20474;-69
2022/06/12 10:57:34;;;;;;;1999.90;999.90;;;25.50;91.30;;;;;;5049385;28;20961;-68
2022/06/12 11:00:04;;;;;;;1999.90;999.90;;;25.60;91.90;;;;;;5044859;28;20489;-69
2022/06/12 11:02:51;;;;;;;1999.90;999.90;;;25.70;91.60;;;;;;5050014;28;20459;-68
2022/06/12 11:05:47;;;;;;;1999.90;999.90;;;25.50;92.50;;;;;;5048482;28;20458;-69
2022/06/12 11:08:33;;;;;;;1999.90;999.90;;;25.20;92.20;;;;;;5037665;28;20508;-69
2022/06/12 11:11:06;;;;;;;1999.90;999.90;;;25.40;91.90;;;;;;5045262;28;20468;-69
2022/06/12 11:13:52;;;;;;;1999.90;999.90;;;25.40;91.70;;;;;;5047107;28;20470;-69
2022/06/12 11:16:28;;;;;;;1999.90;999.90;;;25.30;92.10;;;;;;5047721;28;20466;-69
2022/06/12 11:19:13;;;;;;;1999.90;999.90;;;25.60;91.80;;;;;;5045393;28;20881;-69
2022/06/12 11:21:50;;;;;;;1999.90;999.90;;;25.90;91.20;;;;;;5048244;28;20520;-70
2022/06/12 11:24:22;;;;;;;1999.90;999.90;;;26.00;91.00;;;;;;5047376;28;20519;-69
2022/06/12 11:27:23;;;;;;;1999.90;999.90;;;26.10;90.80;;;;;;5044546;28;21027;-69
2022/06/12 11:30:04;;;;;;;1999.90;999.90;;;25.90;90.30;;;;;;5038082;28;20489;-69
2022/06/12 11:32:48;;;;;;;1999.90;999.90;;;25.80;90.70;;;;;;5048422;28;20453;-69
2022/06/12 11:35:27;;;;;;;1999.90;999.90;;;25.50;90.80;;;;;;5049015;28;20489;-70
2022/06/12 11:38:31;;;;;;;1999.90;999.90;;;25.40;91.10;;;;;;5043194;28;20450;-69
2022/06/12 11:41:08;;;;;;;1999.90;999.90;;;25.70;90.30;;;;;;5045368;28;20539;-69
2022/06/12 11:43:39;;;;;;;1999.90;999.90;;;25.90;90.00;;;;;;5047250;28;20974;-69
2022/06/12 11:46:24;;;;;;;1999.90;999.90;;;25.90;90.00;;;;;;5045968;28;21021;-69
2022/06/12 11:49:09;;;;;;;1999.90;999.90;;;26.10;89.20;;;;;;5047623;28;20513;-69
2022/06/12 11:51:47;;;;;;;1999.90;999.90;;;26.40;88.90;;;;;;5048688;28;20454;-69
2022/06/12 11:54:42;;;;;;;1999.90;999.90;;;26.30;88.40;;;;;;5052142;28;20489;-70
2022/06/12 11:57:18;;;;;;;1999.90;999.90;;;26.20;88.80;;;;;;5051158;28;20459;-69
2022/06/12 11:59:57;;;;;;;1999.90;999.90;;;26.50;87.50;;;;;;5049398;28;20543;-69
2022/06/12 12:02:33;;;;;;;1999.90;999.90;;;26.40;88.70;;;;;;5053072;28;20484;-69
2022/06/12 12:05:34;;;;;;;1999.90;999.90;;;26.40;87.10;;;;;;5051275;28;20457;-69
2022/06/12 12:08:15;;;;;;;1999.90;999.90;;;26.70;85.60;;;;;;5049425;28;20890;-68
2022/06/12 12:10:48;;;;;;;1999.90;999.90;;;27.00;84.80;;;;;;5051639;28;20481;-69
2022/06/12 12:13:21;;;;;;;1999.90;999.90;;;27.10;85.00;;;;;;5052754;28;20469;-70
2022/06/12 12:15:50;;;;;;;1999.90;999.90;;;26.90;84.90;;;;;;5048221;28;20473;-69
2022/06/12 12:18:41;;;;;;;1999.90;999.90;;;26.60;85.10;;;;;;5051221;28;20761;-70
2022/06/12 12:21:13;;;;;;;1999.90;999.90;;;26.50;85.90;;;;;;5050595;28;20523;-70
2022/06/12 12:23:44;;;;;;;1999.90;999.90;;;26.60;85.90;;;;;;5052872;28;20462;-69
2022/06/12 12:26:20;;;;;;;1999.90;999.90;;;26.60;86.50;;;;;;5051363;28;20522;-70
2022/06/12 12:28:51;;;;;;;1999.90;999.90;;;26.70;85.10;;;;;;5048195;28;20462;-70
2022/06/12 12:31:19;;;;;;;1999.90;999.90;;;26.60;84.00;;;;;;5051100;28;20465;-70
2022/06/12 12:33:47;;;;;;;1999.90;999.90;;;26.30;84.90;;;;;;5051286;28;20511;-70